Time,TemperatureF,DewpointF,PressureIn,WindDirection,WindDirectionDegrees,WindSpeedMPH,WindSpeedGustMPH,Humidity,HourlyPrecipIn,Conditions,Clouds,dailyrainin,SoftwareType,DateUTC
2013-09-11 01:42:00,51.0,-99.9,-100.00,WNW,290,1.0,-999.0,-999,-99.99,,,-99.99,,2013-09-11 08:42:00,
2013-09-11 01:50:00,50.0,43.0,-100.00,North,-999,-999.0,-999.0,78,-99.99,,,-99.99,,2013-09-11 08:50:00,
2013-09-11 02:43:00,50.0,43.0,-100.00,North,-999,-999.0,-999.0,78,-99.99,,,-99.99,,2013-09-11 09:43:00,
2013-09-11 03:13:00,50.0,42.0,-100.00,North,-999,-999.0,-999.0,74,-99.99,,,-99.99,,2013-09-11 10:13:00,
2013-09-11 03:43:00,49.0,45.0,-100.00,North,-999,-999.0,-999.0,84,-99.99,,,-99.99,,2013-09-11 10:43:00,
2013-09-11 03:53:00,50.0,42.0,-100.00,North,-999,-999.0,-999.0,73,-99.99,,,-99.99,,2013-09-11 10:53:00,
2013-09-11 04:02:00,50.0,42.0,-100.00,North,-999,-999.0,-999.0,73,-99.99,,,-99.99,,2013-09-11 11:02:00,
2013-09-11 04:21:00,49.0,41.0,-100.00,North,-999,-999.0,-999.0,73,-99.99,,,-99.99,,2013-09-11 11:21:00,
2013-09-11 04:33:00,49.0,41.0,-100.00,North,-999,-999.0,-999.0,73,-99.99,,,-99.99,,2013-09-11 11:33:00,
2013-09-11 04:42:00,49.0,41.0,-100.00,North,-999,-999.0,-999.0,73,-99.99,,,-99.99,,2013-09-11 11:42:00,
2013-09-11 04:52:00,48.0,45.0,-100.00,North,-999,-999.0,-999.0,89,-99.99,,,-99.99,,2013-09-11 11:52:00,
2013-09-11 05:00:00,47.0,42.0,-100.00,North,-999,-999.0,-999.0,82,-99.99,,,-99.99,,2013-09-11 12:00:00,
2013-09-11 05:01:00,48.0,45.0,-100.00,North,-999,-999.0,-999.0,89,-99.99,,,-99.99,,2013-09-11 12:01:00,
2013-09-11 05:42:00,47.0,42.0,-100.00,North,-999,-999.0,-999.0,82,-99.99,,,-99.99,,2013-09-11 12:42:00,
2013-09-11 05:52:00,47.0,42.0,-100.00,North,-999,-999.0,-999.0,82,-99.99,,,-99.99,,2013-09-11 12:52:00,
2013-09-11 06:22:00,47.0,43.0,-100.00,North,-999,-999.0,-999.0,87,-99.99,,,-99.99,,2013-09-11 13:22:00,
2013-09-11 06:32:00,47.0,43.0,-100.00,North,-999,-999.0,-999.0,87,-99.99,,,-99.99,,2013-09-11 13:32:00,
2013-09-11 06:52:00,47.0,43.0,-100.00,North,-999,-999.0,-999.0,87,-99.99,,,-99.99,,2013-09-11 13:52:00,
2013-09-11 07:02:00,47.0,43.0,-100.00,North,-999,-999.0,-999.0,87,-99.99,,,-99.99,,2013-09-11 14:02:00,
2013-09-11 07:11:00,47.0,43.0,-100.00,North,-999,-999.0,-999.0,87,-99.99,,,-99.99,,2013-09-11 14:11:00,
2013-09-11 07:21:00,46.0,42.0,-100.00,North,-999,-999.0,-999.0,87,-99.99,,,-99.99,,2013-09-11 14:21:00,
2013-09-11 07:52:00,47.0,44.0,-100.00,North,-999,-999.0,-999.0,88,-99.99,,,-99.99,,2013-09-11 14:52:00,
2013-09-11 08:02:00,47.0,45.0,-100.00,North,-999,-999.0,-999.0,86,-99.99,,,-99.99,,2013-09-11 15:02:00,
2013-09-11 08:22:00,51.0,46.0,-100.00,North,-999,-999.0,-999.0,83,-99.99,,,-99.99,,2013-09-11 15:22:00,
2013-09-11 08:33:00,51.0,49.0,-100.00,North,-999,-999.0,-999.0,83,-99.99,,,-99.99,,2013-09-11 15:33:00,
2013-09-11 12:01:00,-999.0,-99.9,-100.00,East,80,172.0,-999.0,-999,-99.99,,,-99.99,,2013-09-11 19:01:00,
2013-09-11 12:12:00,-999.0,-99.9,-100.00,East,80,172.0,-999.0,-999,-99.99,,,-99.99,,2013-09-11 19:12:00,
2013-09-11 12:22:00,70.0,-99.9,-100.00,North,-999,-999.0,-999.0,-999,-99.99,,,-99.99,,2013-09-11 19:22:00,
2013-09-11 14:54:00,-999.0,-99.9,-100.00,WNW,300,1.0,-999.0,-999,-99.99,,,-99.99,,2013-09-11 21:54:00,
2013-09-11 15:54:00,-999.0,-99.9,-100.00,WNW,290,1.0,-999.0,-999,-99.99,,,-99.99,,2013-09-11 22:54:00,
2013-09-11 16:53:00,74.0,-99.9,-100.00,NNW,330,1.0,-999.0,-999,-99.99,,,-99.99,,2013-09-11 23:53:00,
2013-09-11 17:01:00,74.0,-99.9,-100.00,NNW,330,1.0,-999.0,-999,-99.99,,,-99.99,,2013-09-12 00:01:00,
2013-09-11 17:12:00,74.0,-99.9,-100.00,NNW,330,1.0,-999.0,-999,-99.99,,,-99.99,,2013-09-12 00:12:00,
2013-09-11 17:32:00,-999.0,-99.9,-100.00,NNW,330,1.0,-999.0,-999,-99.99,,,-99.99,,2013-09-12 00:32:00,
2013-09-11 20:45:00,65.0,-99.9,-100.00,North,-999,-999.0,-999.0,-999,-99.99,,,-99.99,,2013-09-12 03:45:00,
2013-09-11 21:24:00,62.0,-99.9,-100.00,NNW,330,0.0,-999.0,56,-99.99,,,-99.99,,2013-09-12 04:24:00,
2013-09-11 21:43:00,61.0,46.0,-100.00,North,-999,-999.0,-999.0,57,-99.99,,,-99.99,,2013-09-12 04:43:00,
2013-09-11 23:01:00,56.0,44.0,-100.00,North,-999,-999.0,-999.0,67,-99.99,,,-99.99,,2013-09-12 06:01:00,
2013-09-11 23:12:00,56.0,44.0,-100.00,North,-999,-999.0,-999.0,67,-99.99,,,-99.99,,2013-09-12 06:12:00,
2013-09-11 23:21:00,56.0,44.0,-100.00,North,-999,-999.0,-999.0,64,-99.99,,,-99.99,,2013-09-12 06:21:00,
2013-09-11 23:42:00,54.0,42.0,-100.00,North,-999,-999.0,-999.0,64,-99.99,,,-99.99,,2013-09-12 06:42:00,
2013-09-11 23:52:00,54.0,42.0,-100.00,North,-999,-999.0,-999.0,64,-99.99,,,-99.99,,2013-09-12 06:52:00,